Time;durP1;ratioP1;P1;durP2;ratioP2;P2;SDS_P1;SDS_P2;PMS_P1;PMS_P2;Temp;Humidity;BMP_temperature;BMP_pressure;BME280_temperature;BME280_humidity;BME280_pressure;Samples;Min_cycle;Max_cycle;Signal;HPM_P1;HPM_P2
2022/04/16 00:00:11;;;;;;;21.03;18.83;;;7.30;99.90;;;;;;5073771;28;20175;-66
2022/04/16 00:02:38;;;;;;;25.40;19.33;;;7.30;99.90;;;;;;5073799;28;20197;-67
2022/04/16 00:05:05;;;;;;;21.10;18.23;;;7.20;99.90;;;;;;5072102;28;20590;-67
2022/04/16 00:07:30;;;;;;;20.40;18.20;;;7.20;99.90;;;;;;5073709;28;20205;-67
2022/04/16 00:09:56;;;;;;;25.30;19.77;;;7.20;99.90;;;;;;5071037;28;20178;-66
2022/04/16 00:12:21;;;;;;;23.77;18.57;;;7.20;99.90;;;;;;5073489;28;20229;-67
2022/04/16 00:14:47;;;;;;;23.60;19.20;;;7.20;99.90;;;;;;5073170;28;20208;-66
2022/04/16 00:17:13;;;;;;;23.93;19.67;;;7.20;99.90;;;;;;5072133;28;20255;-66
2022/04/16 00:19:40;;;;;;;24.07;18.53;;;7.20;99.90;;;;;;5073726;28;20628;-66
2022/04/16 00:22:12;;;;;;;25.23;18.83;;;7.10;99.90;;;;;;5073469;28;20237;-67
2022/04/16 00:24:44;;;;;;;23.50;19.90;;;7.10;99.90;;;;;;5073161;28;20662;-67
2022/04/16 00:27:10;;;;;;;25.53;18.47;;;7.10;99.90;;;;;;5073449;28;20549;-66
2022/04/16 00:29:37;;;;;;;23.50;19.03;;;7.10;99.90;;;;;;5073474;28;20178;-67
2022/04/16 00:32:06;;;;;;;24.77;20.80;;;7.10;99.90;;;;;;5073502;28;20695;-67
2022/04/16 00:34:32;;;;;;;23.63;19.53;;;7.10;99.90;;;;;;5072950;28;20181;-66
2022/04/16 00:36:58;;;;;;;26.43;19.97;;;7.20;99.90;;;;;;5072913;28;20209;-66
2022/04/16 00:39:24;;;;;;;27.97;20.73;;;7.20;99.90;;;;;;5073278;28;20174;-66
2022/04/16 00:41:51;;;;;;;24.10;18.37;;;7.20;99.90;;;;;;5073038;28;20594;-67
2022/04/16 00:44:19;;;;;;;25.97;19.83;;;7.20;99.90;;;;;;5066013;28;20659;-66
2022/04/16 00:46:45;;;;;;;22.40;20.00;;;7.20;99.90;;;;;;5052640;28;20216;-66
2022/04/16 00:49:11;;;;;;;28.17;20.63;;;7.10;99.90;;;;;;5052952;28;20179;-67
2022/04/16 00:51:37;;;;;;;25.67;20.80;;;7.10;99.90;;;;;;5052996;28;20350;-66
2022/04/16 00:54:02;;;;;;;22.77;20.37;;;7.00;99.90;;;;;;5051724;28;20706;-66
2022/04/16 00:56:28;;;;;;;25.43;19.57;;;7.00;99.90;;;;;;5052447;28;20268;-66
2022/04/16 00:58:54;;;;;;;21.30;18.43;;;7.00;99.90;;;;;;5052697;28;20175;-66
2022/04/16 01:01:19;;;;;;;22.73;19.80;;;7.00;99.90;;;;;;5052774;28;20209;-66
2022/04/16 01:03:47;;;;;;;22.70;20.20;;;6.90;99.90;;;;;;5052736;28;20196;-66
2022/04/16 01:06:15;;;;;;;24.33;19.40;;;6.90;99.90;;;;;;5051253;28;20245;-66
2022/04/16 01:08:44;;;;;;;22.53;19.50;;;6.90;99.90;;;;;;5052720;28;20171;-66
2022/04/16 01:11:11;;;;;;;27.80;19.60;;;6.80;99.90;;;;;;5049998;28;20273;-67
2022/04/16 01:13:37;;;;;;;25.90;20.97;;;6.80;99.90;;;;;;5051101;28;20621;-66
2022/04/16 01:16:05;;;;;;;25.70;21.20;;;6.80;99.90;;;;;;5052085;28;20209;-66
2022/04/16 01:18:34;;;;;;;29.73;23.27;;;6.70;99.90;;;;;;5052410;28;20363;-67
2022/04/16 01:21:02;;;;;;;26.70;22.57;;;6.70;99.90;;;;;;5052395;28;20640;-67
2022/04/16 01:23:28;;;;;;;24.93;21.93;;;6.70;99.90;;;;;;5051221;28;20256;-67
2022/04/16 01:25:55;;;;;;;29.03;22.63;;;6.70;99.90;;;;;;5052022;28;20171;-66
2022/04/16 01:28:21;;;;;;;27.63;21.73;;;6.80;99.90;;;;;;5052129;28;20174;-66
2022/04/16 01:30:47;;;;;;;26.50;21.53;;;6.80;99.90;;;;;;5052253;28;20217;-66
2022/04/16 01:33:12;;;;;;;26.60;21.37;;;6.80;99.90;;;;;;5050783;28;20260;-67
2022/04/16 01:35:38;;;;;;;24.57;22.13;;;6.70;99.90;;;;;;5051898;28;20240;-66
2022/04/16 01:38:06;;;;;;;26.40;22.87;;;6.70;99.90;;;;;;5050480;28;20206;-66
2022/04/16 01:40:32;;;;;;;27.40;21.07;;;6.80;99.90;;;;;;5050737;28;20657;-67
2022/04/16 01:42:58;;;;;;;32.90;22.00;;;6.70;99.90;;;;;;5051643;28;20224;-66
2022/04/16 01:45:24;;;;;;;27.47;21.93;;;6.70;99.90;;;;;;5067568;28;20257;-67
2022/04/16 01:47:50;;;;;;;26.97;22.43;;;6.70;99.90;;;;;;5071768;28;20232;-66
2022/04/16 01:50:16;;;;;;;31.80;22.50;;;6.70;99.90;;;;;;5071961;28;20562;-66
2022/04/16 01:52:42;;;;;;;29.30;21.63;;;6.70;99.90;;;;;;5070354;28;20202;-66
2022/04/16 01:55:09;;;;;;;29.27;22.10;;;6.60;99.90;;;;;;5071436;28;20182;-66
2022/04/16 01:57:35;;;;;;;33.70;21.57;;;6.50;99.90;;;;;;5070883;28;20568;-66
2022/04/16 02:00:03;;;;;;;27.03;20.67;;;6.50;99.90;;;;;;5071581;28;20229;-66
2022/04/16 02:02:29;;;;;;;21.97;19.33;;;6.50;99.90;;;;;;5071389;28;20277;-67
2022/04/16 02:04:55;;;;;;;24.73;21.33;;;6.40;99.90;;;;;;5071241;28;20253;-66
2022/04/16 02:07:20;;;;;;;29.43;20.13;;;6.40;99.90;;;;;;5071652;28;20614;-66
2022/04/16 02:09:46;;;;;;;25.10;19.97;;;6.30;99.90;;;;;;5070406;28;20224;-67
2022/04/16 02:12:13;;;;;;;26.93;19.77;;;6.20;99.90;;;;;;5070017;28;20210;-66
2022/04/16 02:14:38;;;;;;;27.80;20.00;;;6.20;99.90;;;;;;5071142;28;20170;-66
2022/04/16 02:17:04;;;;;;;28.97;19.93;;;6.20;99.90;;;;;;5071222;28;20570;-67
2022/04/16 02:19:30;;;;;;;27.57;20.07;;;6.10;99.90;;;;;;5070198;28;20178;-66
2022/04/16 02:21:55;;;;;;;27.70;19.30;;;6.10;99.90;;;;;;5071210;28;20719;-66
2022/04/16 02:24:21;;;;;;;28.33;20.63;;;6.00;99.90;;;;;;5070025;28;20170;-66
2022/04/16 02:26:47;;;;;;;27.10;20.80;;;6.00;99.90;;;;;;5069670;28;20178;-67
2022/04/16 02:29:13;;;;;;;25.43;20.50;;;5.90;99.90;;;;;;5071277;28;20182;-67
2022/04/16 02:31:39;;;;;;;28.83;20.33;;;5.90;99.90;;;;;;5071369;28;20166;-66
2022/04/16 02:34:07;;;;;;;28.17;21.53;;;5.90;99.90;;;;;;5071169;28;20197;-66
2022/04/16 02:36:33;;;;;;;25.40;21.57;;;5.80;99.90;;;;;;5070836;28;20202;-67
2022/04/16 02:38:59;;;;;;;31.37;20.93;;;5.70;99.90;;;;;;5069783;28;20174;-66
2022/04/16 02:41:25;;;;;;;27.83;22.20;;;5.70;99.90;;;;;;5071130;28;20291;-67
2022/04/16 02:43:54;;;;;;;32.70;21.87;;;5.70;99.90;;;;;;5067718;28;20201;-66
2022/04/16 02:49:07;;;;;;;33.53;22.77;;;5.60;99.90;;;;;;5051227;28;20189;-67
2022/04/16 02:51:33;;;;;;;32.53;22.93;;;5.60;99.90;;;;;;5051089;28;20174;-66
2022/04/16 02:53:59;;;;;;;32.97;23.33;;;5.60;99.90;;;;;;5049589;28;20175;-67
2022/04/16 02:56:25;;;;;;;31.43;23.03;;;5.50;99.90;;;;;;5050640;28;20623;-67
2022/04/16 02:58:50;;;;;;;29.17;22.00;;;5.50;99.90;;;;;;5051023;28;20174;-66
2022/04/16 03:01:16;;;;;;;31.73;21.57;;;5.50;99.90;;;;;;5051023;28;20194;-66
2022/04/16 03:03:41;;;;;;;28.93;22.43;;;5.50;99.90;;;;;;5050950;28;20191;-67
2022/04/16 03:06:08;;;;;;;30.83;21.83;;;5.50;99.90;;;;;;5050487;28;20212;-66
2022/04/16 03:08:34;;;;;;;28.67;20.70;;;5.40;99.90;;;;;;5052649;28;20194;-66
2022/04/16 03:11:00;;;;;;;35.53;21.33;;;5.40;99.90;;;;;;5053956;28;20175;-66
2022/04/16 03:13:26;;;;;;;31.77;23.10;;;5.40;99.90;;;;;;5053530;28;20205;-67
2022/04/16 03:18:36;;;;;;;30.50;21.70;;;5.30;99.90;;;;;;5055021;28;20279;-67
2022/04/16 03:21:01;;;;;;;32.43;21.43;;;5.30;99.90;;;;;;5054571;28;20167;-66
2022/04/16 03:23:28;;;;;;;30.13;21.40;;;5.20;99.90;;;;;;5055069;28;20724;-66
2022/04/16 03:25:58;;;;;;;30.03;22.07;;;5.20;99.90;;;;;;5054162;28;20175;-66
2022/04/16 03:28:24;;;;;;;30.63;21.87;;;5.10;99.90;;;;;;5053244;28;20186;-66
2022/04/16 03:30:49;;;;;;;34.73;24.20;;;5.10;99.90;;;;;;5054376;28;20175;-66
2022/04/16 03:33:15;;;;;;;33.03;22.33;;;5.10;99.90;;;;;;5054426;28;20201;-66
2022/04/16 03:35:40;;;;;;;37.03;23.73;;;5.10;99.90;;;;;;5054288;28;20171;-67
2022/04/16 03:38:06;;;;;;;39.37;23.50;;;5.10;99.90;;;;;;5054181;28;20210;-66
2022/04/16 03:40:32;;;;;;;36.23;23.83;;;5.10;99.90;;;;;;5052936;28;20182;-66
2022/04/16 03:42:59;;;;;;;37.70;23.33;;;5.10;99.90;;;;;;5053241;28;20616;-67
2022/04/16 03:45:33;;;;;;;34.40;22.53;;;5.00;99.90;;;;;;5069995;28;20632;-66
2022/04/16 03:48:01;;;;;;;32.90;22.50;;;5.00;99.90;;;;;;5074032;28;20174;-67
2022/04/16 03:50:28;;;;;;;38.07;24.33;;;5.00;99.90;;;;;;5073893;28;20540;-66
2022/04/16 03:52:55;;;;;;;33.43;23.37;;;5.00;99.90;;;;;;5073898;28;20281;-67
2022/04/16 04:00:56;;;;;;;38.10;26.70;;;4.90;99.90;;;;;;5073846;28;20639;-66
2022/04/16 04:03:22;;;;;;;40.47;25.93;;;4.90;99.90;;;;;;5072417;28;20280;-67
2022/04/16 04:05:49;;;;;;;38.33;25.83;;;4.90;99.90;;;;;;5073435;28;20223;-67
2022/04/16 04:08:15;;;;;;;43.77;28.40;;;4.90;99.90;;;;;;5072737;28;20166;-67
2022/04/16 04:10:41;;;;;;;42.67;26.63;;;5.00;99.90;;;;;;5072669;28;20576;-67
2022/04/16 04:13:07;;;;;;;43.50;27.47;;;5.10;99.90;;;;;;5073565;28;20682;-67
2022/04/16 04:15:32;;;;;;;39.13;26.40;;;5.10;99.90;;;;;;5073388;28;20586;-67
2022/04/16 04:17:59;;;;;;;40.37;26.80;;;5.10;99.90;;;;;;5073459;28;20229;-67
2022/04/16 04:20:26;;;;;;;46.67;28.03;;;5.10;99.90;;;;;;5071433;28;20169;-67
2022/04/16 04:22:52;;;;;;;52.37;30.37;;;5.10;99.90;;;;;;5071905;28;20562;-67
2022/04/16 04:25:18;;;;;;;57.73;28.50;;;5.10;99.90;;;;;;5073222;28;20170;-67
2022/04/16 04:27:44;;;;;;;48.27;28.10;;;5.10;99.90;;;;;;5073688;28;20177;-67
2022/04/16 04:30:11;;;;;;;50.33;29.17;;;5.10;99.90;;;;;;5073621;28;20167;-67
2022/04/16 04:32:36;;;;;;;45.17;27.70;;;5.10;99.90;;;;;;5073175;28;20190;-67
2022/04/16 04:35:06;;;;;;;50.17;30.83;;;5.10;99.90;;;;;;5072877;28;20178;-67
2022/04/16 04:37:32;;;;;;;45.13;28.70;;;5.10;99.90;;;;;;5073056;28;20206;-67
2022/04/16 04:39:58;;;;;;;51.40;30.37;;;5.10;99.90;;;;;;5073380;28;20232;-67
2022/04/16 04:42:24;;;;;;;50.17;28.73;;;5.10;99.90;;;;;;5073001;28;20631;-67
2022/04/16 04:44:50;;;;;;;47.43;28.90;;;5.20;99.90;;;;;;5061543;28;20510;-67
2022/04/16 04:47:15;;;;;;;50.87;30.10;;;5.10;99.90;;;;;;5052984;28;20201;-67
2022/04/16 04:49:41;;;;;;;49.33;31.37;;;5.10;99.90;;;;;;5053353;28;20593;-67
2022/04/16 04:52:07;;;;;;;53.00;31.27;;;5.10;99.90;;;;;;5052807;28;20198;-67
2022/04/16 04:54:32;;;;;;;48.13;27.90;;;5.10;99.90;;;;;;5051154;28;20273;-67
2022/04/16 04:56:58;;;;;;;59.60;30.17;;;5.10;99.90;;;;;;5052643;28;20194;-67
2022/04/16 04:59:24;;;;;;;47.27;28.00;;;5.20;99.90;;;;;;5051569;28;20213;-67
2022/04/16 05:01:49;;;;;;;44.47;27.27;;;5.10;99.90;;;;;;5052642;28;20273;-67
2022/04/16 05:04:15;;;;;;;52.93;29.57;;;5.20;99.90;;;;;;5051502;28;20636;-67
2022/04/16 05:06:41;;;;;;;44.00;27.40;;;5.10;99.90;;;;;;5052292;28;20171;-67
2022/04/16 05:09:06;;;;;;;55.20;31.20;;;5.20;99.90;;;;;;5052567;28;20782;-67
2022/04/16 05:11:32;;;;;;;44.93;28.67;;;5.20;99.90;;;;;;5051691;28;20261;-67
2022/04/16 05:13:57;;;;;;;47.83;29.90;;;5.30;99.90;;;;;;5052335;28;20656;-67
2022/04/16 05:16:24;;;;;;;45.80;28.77;;;5.30;99.90;;;;;;5050838;28;20256;-67
2022/04/16 05:18:49;;;;;;;54.77;30.30;;;5.40;99.90;;;;;;5052276;28;20171;-67
2022/04/16 05:21:15;;;;;;;54.27;32.63;;;5.40;99.90;;;;;;5052375;28;20194;-67
2022/04/16 05:23:41;;;;;;;48.73;28.77;;;5.50;99.90;;;;;;5052350;28;20194;-67
2022/04/16 05:26:10;;;;;;;48.27;29.37;;;5.50;99.90;;;;;;5051975;28;20315;-67
2022/04/16 05:28:37;;;;;;;57.33;32.13;;;5.60;99.90;;;;;;5052095;28;20170;-67
2022/04/16 05:31:04;;;;;;;60.87;30.33;;;5.70;99.90;;;;;;5052102;28;20632;-67
2022/04/16 05:36:14;;;;;;;47.07;28.80;;;6.00;99.90;;;;;;5051773;28;20262;-67
2022/04/16 05:38:39;;;;;;;53.67;32.97;;;6.00;99.90;;;;;;5051866;28;20246;-67
2022/04/16 05:41:05;;;;;;;51.33;29.57;;;6.10;99.90;;;;;;5050694;28;20178;-67
2022/04/16 05:43:31;;;;;;;54.80;32.60;;;6.10;99.90;;;;;;5052148;28;20209;-67
2022/04/16 05:45:56;;;;;;;60.23;33.50;;;6.30;99.90;;;;;;5070135;28;20675;-67
2022/04/16 05:48:22;;;;;;;56.03;32.07;;;6.40;99.90;;;;;;5071771;28;20260;-67
2022/04/16 05:50:47;;;;;;;59.27;31.90;;;6.50;99.90;;;;;;5071214;28;20186;-67
2022/04/16 05:53:14;;;;;;;59.37;31.57;;;6.50;99.90;;;;;;5071791;28;20248;-67
2022/04/16 05:55:45;;;;;;;58.97;32.40;;;6.60;99.90;;;;;;5071696;28;20174;-67
2022/04/16 05:58:11;;;;;;;60.43;32.80;;;6.70;99.90;;;;;;5071685;28;20198;-67
2022/04/16 06:00:37;;;;;;;54.33;34.53;;;6.80;99.90;;;;;;5052914;28;20182;-67
2022/04/16 06:03:04;;;;;;;60.07;32.77;;;6.90;99.90;;;;;;5051337;28;20229;-67
2022/04/16 06:05:31;;;;;;;59.00;32.90;;;7.20;99.90;;;;;;5051338;28;20202;-67
2022/04/16 06:07:58;;;;;;;51.03;33.83;;;7.50;99.90;;;;;;5051267;28;20700;-66
2022/04/16 06:10:23;;;;;;;47.23;31.60;;;7.90;99.90;;;;;;5051516;28;20175;-66
2022/04/16 06:12:49;;;;;;;37.47;26.97;;;8.20;99.90;;;;;;5051083;28;20687;-67
2022/04/16 06:15:15;;;;;;;44.13;27.13;;;8.40;99.90;;;;;;5051183;28;20218;-66
2022/04/16 06:17:40;;;;;;;35.43;24.23;;;8.70;99.90;;;;;;5049996;28;20210;-67
2022/04/16 06:20:08;;;;;;;25.37;20.40;;;9.00;99.90;;;;;;5051212;28;20262;-66
2022/04/16 06:22:34;;;;;;;22.67;19.00;;;9.40;99.90;;;;;;5051155;28;20552;-67
2022/04/16 06:25:00;;;;;;;23.90;17.30;;;9.70;99.90;;;;;;5050729;28;20178;-66
2022/04/16 06:27:26;;;;;;;20.67;17.83;;;10.00;99.90;;;;;;5049966;28;20232;-67
2022/04/16 06:29:51;;;;;;;17.60;15.87;;;10.40;99.90;;;;;;5049721;28;20706;-68
2022/04/16 06:32:17;;;;;;;17.40;15.63;;;10.90;99.90;;;;;;5051153;28;20198;-67
2022/04/16 06:34:42;;;;;;;17.87;15.93;;;11.30;99.90;;;;;;5050754;28;20229;-67
2022/04/16 06:37:08;;;;;;;17.17;15.30;;;11.50;99.90;;;;;;5050692;28;20728;-67
2022/04/16 06:39:34;;;;;;;16.13;14.43;;;11.80;99.90;;;;;;5050945;28;20265;-67
2022/04/16 06:41:59;;;;;;;18.63;15.77;;;12.30;99.90;;;;;;5049534;28;20206;-68
2022/04/16 06:44:25;;;;;;;17.77;14.60;;;12.60;99.90;;;;;;5065070;28;20162;-67
2022/04/16 06:46:52;;;;;;;16.60;14.30;;;13.10;99.90;;;;;;5077308;28;20195;-67
2022/04/16 06:49:17;;;;;;;18.20;14.67;;;13.30;99.90;;;;;;5078016;28;20170;-67
2022/04/16 06:51:43;;;;;;;18.30;14.90;;;13.50;99.90;;;;;;5077844;28;20181;-68
2022/04/16 06:54:09;;;;;;;14.80;13.30;;;13.80;99.90;;;;;;5077852;28;20235;-67
2022/04/16 06:56:35;;;;;;;18.30;14.07;;;14.20;99.90;;;;;;5076173;28;20284;-68
2022/04/16 06:59:00;;;;;;;15.77;14.13;;;14.50;99.90;;;;;;5076334;28;20323;-67
2022/04/16 07:01:26;;;;;;;15.87;14.17;;;14.40;99.90;;;;;;5078100;28;20181;-67
2022/04/16 07:03:52;;;;;;;16.13;14.10;;;14.50;99.90;;;;;;5076604;28;20198;-67
2022/04/16 07:06:19;;;;;;;18.57;13.77;;;14.60;99.90;;;;;;5076469;28;20183;-66
2022/04/16 07:08:45;;;;;;;15.57;13.97;;;14.80;99.90;;;;;;5078000;28;20159;-67
2022/04/16 07:11:11;;;;;;;15.47;13.60;;;14.80;99.90;;;;;;5075555;28;20194;-67
2022/04/16 07:13:37;;;;;;;17.70;15.17;;;14.90;99.90;;;;;;5077238;28;20200;-69
2022/04/16 07:16:03;;;;;;;17.57;14.63;;;14.80;99.90;;;;;;5076410;28;20243;-68
2022/04/16 07:18:29;;;;;;;17.60;13.70;;;15.00;99.90;;;;;;5078033;28;20601;-68
2022/04/16 07:20:55;;;;;;;17.87;14.23;;;14.70;99.90;;;;;;5076385;28;20178;-68
2022/04/16 07:23:21;;;;;;;15.30;13.37;;;14.50;99.90;;;;;;5077606;28;20243;-68
2022/04/16 07:25:46;;;;;;;16.97;13.47;;;14.30;99.90;;;;;;5076424;28;20166;-66
2022/04/16 07:28:14;;;;;;;17.03;13.93;;;14.30;99.90;;;;;;5076627;28;20181;-67
2022/04/16 07:30:40;;;;;;;15.03;13.33;;;14.30;99.90;;;;;;5078099;28;20173;-66
2022/04/16 07:33:05;;;;;;;14.33;12.33;;;14.30;99.90;;;;;;5078582;28;20202;-67
2022/04/16 07:35:31;;;;;;;15.80;13.73;;;14.50;99.90;;;;;;5082425;28;20197;-68
2022/04/16 07:37:57;;;;;;;14.47;12.97;;;14.40;99.90;;;;;;5083647;28;20229;-67
2022/04/16 07:40:26;;;;;;;14.60;13.10;;;14.30;99.90;;;;;;5077827;28;20210;-67
2022/04/16 07:42:52;;;;;;;13.00;11.63;;;14.60;99.90;;;;;;5077514;28;20205;-67
2022/04/16 07:45:18;;;;;;;13.47;11.60;;;15.10;99.90;;;;;;5070203;28;20189;-67
2022/04/16 07:47:43;;;;;;;13.43;12.03;;;15.20;99.90;;;;;;5077932;28;20174;-67
2022/04/16 07:50:09;;;;;;;14.63;12.23;;;15.40;99.90;;;;;;5077241;28;20206;-67
2022/04/16 07:52:35;;;;;;;15.40;12.33;;;15.10;99.90;;;;;;5064677;28;20190;-67
2022/04/16 07:55:01;;;;;;;13.20;11.90;;;15.20;99.90;;;;;;5073001;28;20189;-66
2022/04/16 07:57:26;;;;;;;12.90;11.47;;;15.50;99.90;;;;;;5074178;28;20233;-67
2022/04/16 07:59:54;;;;;;;13.07;11.70;;;15.80;99.90;;;;;;5074003;28;20562;-67
2022/04/16 08:02:20;;;;;;;13.70;12.03;;;16.10;99.90;;;;;;5074169;28;20276;-67
2022/04/16 08:04:46;;;;;;;12.90;11.43;;;16.30;99.90;;;;;;5073644;28;20167;-67
2022/04/16 08:07:11;;;;;;;13.60;11.87;;;16.50;99.90;;;;;;5071748;28;20223;-67
2022/04/16 08:09:37;;;;;;;13.23;11.50;;;16.60;99.90;;;;;;5072073;28;20274;-67
2022/04/16 08:12:03;;;;;;;12.53;11.20;;;16.80;99.90;;;;;;5072096;28;20198;-67
2022/04/16 08:14:29;;;;;;;12.77;11.47;;;17.10;99.90;;;;;;5069643;28;20175;-67
2022/04/16 08:16:56;;;;;;;14.27;11.53;;;17.50;99.90;;;;;;5053202;28;20202;-67
2022/04/16 08:19:22;;;;;;;13.67;12.27;;;17.20;99.90;;;;;;5073059;28;20171;-67
2022/04/16 08:21:48;;;;;;;13.77;10.63;;;17.10;99.90;;;;;;5071402;28;20174;-67
2022/04/16 08:24:38;;;;;;;12.40;11.10;;;17.30;99.90;;;;;;5052425;28;20173;-67
2022/04/16 08:27:00;;;;;;;14.23;12.00;;;17.60;99.90;;;;;;5053397;28;20210;-67
2022/04/16 08:29:26;;;;;;;12.67;11.27;;;18.00;99.90;;;;;;5053832;28;20226;-67
2022/04/16 08:31:51;;;;;;;13.43;11.87;;;18.30;99.90;;;;;;5053405;28;20278;-67
2022/04/16 08:34:17;;;;;;;13.77;11.50;;;18.10;99.90;;;;;;5053389;28;20178;-67
2022/04/16 08:36:42;;;;;;;11.77;10.50;;;18.10;99.90;;;;;;5050808;28;20207;-67
2022/04/16 08:39:08;;;;;;;11.60;10.40;;;18.30;99.90;;;;;;5053294;28;20167;-67
2022/04/16 08:41:35;;;;;;;12.07;10.07;;;18.50;99.90;;;;;;5053203;28;20183;-67
2022/04/16 08:44:01;;;;;;;12.70;10.63;;;18.40;99.90;;;;;;5053421;28;20163;-67
2022/04/16 08:46:30;;;;;;;12.50;11.10;;;18.40;99.90;;;;;;5053178;28;20336;-67
2022/04/16 08:48:58;;;;;;;10.33;9.20;;;18.50;99.90;;;;;;5051629;28;20217;-67
2022/04/16 08:51:25;;;;;;;10.47;9.47;;;18.70;99.90;;;;;;5051996;28;20207;-67
2022/04/16 08:53:51;;;;;;;11.87;9.50;;;18.30;99.90;;;;;;5051653;28;20198;-67
2022/04/16 08:56:17;;;;;;;10.83;9.73;;;18.00;99.90;;;;;;5051420;28;20174;-67
2022/04/16 08:58:43;;;;;;;10.23;9.17;;;17.30;99.90;;;;;;5052970;28;20178;-67
2022/04/16 09:01:09;;;;;;;11.03;9.33;;;17.00;99.90;;;;;;5052844;28;20197;-67
2022/04/16 09:03:36;;;;;;;9.67;8.73;;;17.40;99.90;;;;;;5051678;28;20191;-68
2022/04/16 09:06:03;;;;;;;9.23;8.30;;;17.80;99.90;;;;;;5052130;28;20197;-67
2022/04/16 09:08:30;;;;;;;9.57;8.63;;;18.10;99.90;;;;;;5052852;28;20254;-68
2022/04/16 09:11:12;;;;;;;10.30;9.30;;;17.80;99.90;;;;;;5052487;28;20269;-67
2022/04/16 09:13:55;;;;;;;10.23;8.90;;;17.40;99.90;;;;;;5052731;28;20194;-67
2022/04/16 09:16:22;;;;;;;10.23;9.23;;;16.70;99.90;;;;;;5052605;28;20175;-67
2022/04/16 09:18:50;;;;;;;10.63;9.60;;;16.60;99.90;;;;;;5052444;28;20159;-67
2022/04/16 09:21:19;;;;;;;11.70;10.10;;;16.40;99.90;;;;;;5051454;28;20254;-67
2022/04/16 09:23:51;;;;;;;9.93;8.97;;;16.10;99.90;;;;;;5052499;28;20560;-67
2022/04/16 09:26:33;;;;;;;10.47;9.47;;;16.10;99.90;;;;;;5052325;28;20171;-67
2022/04/16 09:29:10;;;;;;;10.20;9.20;;;16.70;99.90;;;;;;5050883;28;20178;-67
2022/04/16 09:31:40;;;;;;;9.77;8.77;;;16.60;99.90;;;;;;5053264;28;20205;-66
2022/04/16 09:34:07;;;;;;;9.77;8.77;;;16.60;99.90;;;;;;5063169;28;20592;-66
2022/04/16 09:36:40;;;;;;;10.17;9.10;;;17.20;99.90;;;;;;5051993;28;20507;-69
2022/04/16 09:39:07;;;;;;;8.80;7.90;;;18.10;99.90;;;;;;5067079;28;20174;-68
2022/04/16 09:41:35;;;;;;;8.23;7.53;;;18.80;99.90;;;;;;5072364;28;20577;-68
2022/04/16 09:44:01;;;;;;;8.60;7.80;;;19.30;99.90;;;;;;5063757;28;20624;-67
2022/04/16 09:46:29;;;;;;;7.43;6.40;;;20.20;99.90;;;;;;5061871;28;20167;-67
2022/04/16 09:49:01;;;;;;;8.43;7.63;;;20.90;99.90;;;;;;5063271;28;20170;-67
2022/04/16 09:51:30;;;;;;;7.53;6.82;;;21.50;99.90;;;;;;5052321;28;20174;-67
2022/04/16 09:53:56;;;;;;;8.25;7.55;;;22.30;99.90;;;;;;5059090;28;20166;-67
2022/04/16 09:56:27;;;;;;;7.72;6.93;;;22.60;99.90;;;;;;5071585;28;20254;-67
2022/04/16 09:58:55;;;;;;;8.52;7.75;;;22.70;99.90;;;;;;5070480;28;20215;-68
2022/04/16 10:01:24;;;;;;;7.65;6.97;;;22.40;99.90;;;;;;5071837;28;20170;-65
2022/04/16 10:03:54;;;;;;;7.50;6.45;;;21.60;99.90;;;;;;5071512;28;20186;-67
2022/04/16 10:06:20;;;;;;;8.23;7.50;;;20.70;99.90;;;;;;5062248;28;20202;-66
2022/04/16 10:08:49;;;;;;;7.00;6.40;;;19.70;99.90;;;;;;5051497;28;20375;-67
2022/04/16 10:11:32;;;;;;;6.63;6.03;;;18.90;99.90;;;;;;5051806;28;20675;-67
2022/04/16 10:14:05;;;;;;;6.90;6.40;;;18.80;99.90;;;;;;5051688;28;20224;-67
2022/04/16 10:16:40;;;;;;;6.07;5.57;;;19.50;99.90;;;;;;5051332;28;20589;-67
2022/04/16 10:19:16;;;;;;;6.72;6.13;;;20.20;99.90;;;;;;5049335;28;20285;-67
2022/04/16 10:21:42;;;;;;;6.03;5.47;;;20.70;99.90;;;;;;5051523;28;20193;-68
2022/04/16 10:24:07;;;;;;;6.15;5.55;;;20.70;99.90;;;;;;5051125;28;20688;-67
2022/04/16 10:26:43;;;;;;;5.97;5.47;;;20.50;99.90;;;;;;5051304;28;20166;-67
2022/04/16 10:29:08;;;;;;;6.73;6.23;;;19.70;99.90;;;;;;5051277;28;20162;-67
2022/04/16 10:31:36;;;;;;;6.60;6.00;;;19.20;99.90;;;;;;5051420;28;20212;-67
2022/04/16 10:34:05;;;;;;;6.17;5.67;;;19.30;99.90;;;;;;5051489;28;20539;-66
2022/04/16 10:36:32;;;;;;;5.70;5.27;;;19.70;99.90;;;;;;5049901;28;20166;-66
2022/04/16 10:39:01;;;;;;;5.80;5.40;;;19.80;99.90;;;;;;5051241;28;20170;-67
2022/04/16 10:41:28;;;;;;;5.43;4.93;;;19.50;99.90;;;;;;5051390;28;20174;-67
2022/04/16 10:43:59;;;;;;;4.95;4.65;;;19.60;99.90;;;;;;5067595;28;20239;-67
2022/04/16 10:46:46;;;;;;;5.67;5.27;;;19.70;99.90;;;;;;5071045;28;20208;-67
2022/04/16 10:49:13;;;;;;;5.07;4.68;;;20.00;99.90;;;;;;5071253;28;20702;-67
2022/04/16 10:51:39;;;;;;;5.03;4.63;;;20.20;99.90;;;;;;5071169;28;20182;-67
2022/04/16 10:54:08;;;;;;;5.05;4.68;;;20.40;99.90;;;;;;5071118;28;20170;-65
2022/04/16 10:56:39;;;;;;;5.72;5.15;;;20.20;99.90;;;;;;5070774;28;20169;-68
2022/04/16 10:59:05;;;;;;;4.80;4.43;;;20.20;99.90;;;;;;5069993;28;20220;-67
2022/04/16 11:01:31;;;;;;;4.78;4.45;;;20.60;99.90;;;;;;5071109;28;20177;-67
2022/04/16 11:03:57;;;;;;;4.53;4.22;;;20.60;99.90;;;;;;5070891;28;20188;-68
2022/04/16 11:06:35;;;;;;;4.32;3.92;;;20.50;99.90;;;;;;5071270;28;20178;-67
2022/04/16 11:09:02;;;;;;;4.22;3.92;;;21.10;99.90;;;;;;5069863;28;20249;-67
2022/04/16 11:11:27;;;;;;;4.38;4.07;;;21.30;99.90;;;;;;5071040;28;20167;-66
2022/04/16 11:13:56;;;;;;;4.18;3.88;;;21.30;99.90;;;;;;5070675;28;20197;-65
2022/04/16 11:16:22;;;;;;;4.07;3.78;;;21.40;99.90;;;;;;5070702;28;20174;-67
2022/04/16 11:18:48;;;;;;;3.97;3.67;;;21.50;99.90;;;;;;5069604;28;20173;-64
2022/04/16 11:21:21;;;;;;;3.70;3.50;;;21.60;99.90;;;;;;5069639;28;20173;-67
2022/04/16 11:23:48;;;;;;;4.07;3.80;;;22.00;99.90;;;;;;5071608;28;20190;-66
2022/04/16 11:34:41;;;;;;;5.28;4.32;;;22.30;99.90;;;;;;5075807;28;20717;-65
2022/04/16 11:37:07;;;;;;;3.72;3.53;;;22.30;99.70;;;;;;5073071;28;20197;-64
2022/04/16 11:39:36;;;;;;;7.43;4.03;;;21.70;99.90;;;;;;5074890;28;20224;-67
2022/04/16 11:42:10;;;;;;;4.35;4.05;;;21.40;99.40;;;;;;5070729;28;20233;-67
2022/04/16 11:44:38;;;;;;;4.22;3.92;;;21.40;98.90;;;;;;5054575;28;20171;-67
2022/04/16 11:47:15;;;;;;;4.32;4.03;;;21.30;98.70;;;;;;5054286;28;20170;-67
2022/04/16 11:49:46;;;;;;;4.10;3.80;;;21.10;98.80;;;;;;5054815;28;20175;-67
2022/04/16 11:52:13;;;;;;;4.38;4.07;;;21.10;97.20;;;;;;5054408;28;20572;-67
2022/04/16 11:54:39;;;;;;;4.20;3.90;;;21.50;99.90;;;;;;5054251;28;20174;-67
2022/04/16 11:57:05;;;;;;;3.90;3.60;;;22.00;98.60;;;;;;5052502;28;20205;-67
2022/04/16 11:59:31;;;;;;;4.00;3.70;;;22.50;99.90;;;;;;5053522;28;20225;-67
2022/04/16 12:02:08;;;;;;;4.75;3.70;;;22.50;97.40;;;;;;5053859;28;20738;-67
2022/04/16 12:04:42;;;;;;;4.60;4.20;;;22.50;96.90;;;;;;5053834;28;20186;-67
2022/04/16 12:07:19;;;;;;;3.90;3.70;;;22.00;94.40;;;;;;5053893;28;20186;-64
2022/04/16 12:09:48;;;;;;;3.90;3.70;;;21.90;96.40;;;;;;5054133;28;20301;-64
2022/04/16 12:12:15;;;;;;;3.88;3.67;;;21.60;99.30;;;;;;5053992;28;20218;-64
2022/04/16 12:14:54;;;;;;;3.88;3.67;;;21.90;97.00;;;;;;5053590;28;20174;-64
2022/04/16 12:17:29;;;;;;;3.70;3.50;;;21.90;98.20;;;;;;5052837;28;20273;-65
2022/04/16 12:20:07;;;;;;;4.30;4.00;;;22.10;97.10;;;;;;5053714;28;20596;-67
2022/04/16 12:22:54;;;;;;;4.07;3.78;;;22.20;97.90;;;;;;5053925;28;20722;-66
2022/04/16 12:25:22;;;;;;;4.57;4.28;;;21.80;94.90;;;;;;5073180;28;20185;-66
2022/04/16 12:27:50;;;;;;;4.32;4.03;;;21.70;99.00;;;;;;5068614;28;20184;-67
2022/04/16 12:30:24;;;;;;;4.10;3.70;;;21.90;96.70;;;;;;5054896;28;20183;-67
2022/04/16 12:32:57;;;;;;;4.25;3.97;;;22.30;97.00;;;;;;5059699;28;20233;-67
2022/04/16 12:35:24;;;;;;;5.20;4.25;;;22.40;94.20;;;;;;5073472;28;20589;-67
2022/04/16 12:37:51;;;;;;;4.20;3.90;;;22.50;95.50;;;;;;5073630;28;20201;-67
2022/04/16 12:40:18;;;;;;;4.25;3.95;;;21.80;95.00;;;;;;5070937;28;20600;-67
2022/04/16 12:42:43;;;;;;;3.80;3.60;;;21.80;95.90;;;;;;5068616;28;20202;-67
2022/04/16 12:45:09;;;;;;;4.57;4.18;;;22.00;95.30;;;;;;5052947;28;20178;-67
2022/04/16 12:47:34;;;;;;;5.45;4.95;;;21.90;96.70;;;;;;5053377;28;20362;-66
2022/04/16 12:50:00;;;;;;;4.30;3.90;;;21.70;97.30;;;;;;5053403;28;20174;-67
2022/04/16 12:52:26;;;;;;;4.63;4.30;;;21.70;94.00;;;;;;5052895;28;20712;-66
2022/04/16 12:54:51;;;;;;;4.88;4.47;;;21.60;96.80;;;;;;5052578;28;20167;-68
2022/04/16 12:57:17;;;;;;;5.28;4.20;;;21.50;95.10;;;;;;5052334;28;20204;-67
2022/04/16 12:59:43;;;;;;;4.13;3.83;;;21.70;95.20;;;;;;5053117;28;20212;-67